createdAt,value
2023-04-07T00:00:55.242Z,17.35
2023-04-07T00:03:22.458Z,17.55
2023-04-07T00:05:49.815Z,17.67
2023-04-07T00:08:17.058Z,18.60
2023-04-07T00:10:44.179Z,17.50
2023-04-07T00:13:11.430Z,19.48
2023-04-07T00:15:38.795Z,19.40
2023-04-07T00:18:05.979Z,19.08
2023-04-07T00:20:33.183Z,19.17
2023-04-07T00:23:00.106Z,19.55
2023-04-07T00:25:27.235Z,20.13
2023-04-07T00:27:54.262Z,19.52
2023-04-07T00:30:21.522Z,17.77
2023-04-07T00:32:49.281Z,18.48
2023-04-07T00:35:16.705Z,19.40
2023-04-07T00:37:43.721Z,19.90
2023-04-07T00:40:11.224Z,20.30
2023-04-07T00:42:38.192Z,19.27
2023-04-07T00:45:06.496Z,17.70
2023-04-07T00:47:33.422Z,19.92
2023-04-07T00:50:00.580Z,20.13
2023-04-07T00:52:29.170Z,18.90
2023-04-07T00:54:56.393Z,18.65
2023-04-07T00:57:23.895Z,19.70
2023-04-07T00:59:52.894Z,19.65
2023-04-07T01:02:31.917Z,18.60
2023-04-07T01:05:17.413Z,20.15
2023-04-07T01:07:52.919Z,19.13
2023-04-07T01:10:41.295Z,19.85
2023-04-07T01:13:23.298Z,21.80
2023-04-07T01:15:58.646Z,19.45
2023-04-07T01:18:32.917Z,20.58
2023-04-07T01:21:04.416Z,19.38
2023-04-07T01:23:54.472Z,21.77
2023-04-07T01:26:26.663Z,21.10
2023-04-07T01:31:41.833Z,18.35
2023-04-07T01:34:13.599Z,20.05
2023-04-07T01:36:42.340Z,20.70
2023-04-07T01:39:09.947Z,19.98
2023-04-07T01:41:39.654Z,19.92
2023-04-07T01:44:08.747Z,18.58
2023-04-07T01:46:36.430Z,21.70
2023-04-07T01:49:05.087Z,21.38
2023-04-07T01:51:34.318Z,22.15
2023-04-07T01:54:02.436Z,21.63
2023-04-07T01:56:29.701Z,21.55
2023-04-07T01:58:58.209Z,21.83
2023-04-07T02:01:26.678Z,22.83
2023-04-07T02:04:12.920Z,21.50
2023-04-07T02:06:49.277Z,22.55
2023-04-07T02:09:21.652Z,20.85
2023-04-07T02:11:51.248Z,23.52
2023-04-07T02:14:21.411Z,23.70
2023-04-07T02:17:02.383Z,22.30
2023-04-07T02:19:30.538Z,22.73
2023-04-07T02:21:59.549Z,24.17
2023-04-07T02:24:26.660Z,25.13
2023-04-07T02:26:53.988Z,24.02
2023-04-07T02:29:21.033Z,23.67
2023-04-07T02:31:48.502Z,24.48
2023-04-07T02:34:15.589Z,24.42
2023-04-07T02:36:42.823Z,25.52
2023-04-07T02:39:10.554Z,25.30
2023-04-07T02:41:38.065Z,26.00
2023-04-07T02:44:05.063Z,26.65
2023-04-07T02:46:32.466Z,25.60
2023-04-07T02:49:00.118Z,25.60
2023-04-07T02:51:27.699Z,25.60
2023-04-07T02:53:55.543Z,26.20
2023-04-07T02:56:23.100Z,24.00
2023-04-07T02:58:50.489Z,26.33
2023-04-07T03:01:18.292Z,25.33
2023-04-07T03:03:47.828Z,26.27
2023-04-07T03:06:25.000Z,26.17
2023-04-07T03:09:07.200Z,26.38
2023-04-07T03:11:34.645Z,27.20
2023-04-07T03:14:01.682Z,26.10
2023-04-07T03:16:31.295Z,27.63
2023-04-07T03:19:04.160Z,26.33
2023-04-07T03:21:37.515Z,27.83
2023-04-07T03:24:05.990Z,26.98
2023-04-07T03:26:33.380Z,27.63
2023-04-07T03:29:01.423Z,28.70
2023-04-07T03:31:31.016Z,27.77
2023-04-07T03:33:58.160Z,29.17
2023-04-07T03:36:27.380Z,28.23
2023-04-07T03:38:57.788Z,27.45
2023-04-07T03:41:25.016Z,28.45
2023-04-07T03:43:52.406Z,27.80
2023-04-07T03:46:21.579Z,28.15
2023-04-07T03:48:48.578Z,27.40
2023-04-07T03:51:16.228Z,28.88
2023-04-07T03:53:45.834Z,28.30
2023-04-07T03:56:26.919Z,28.45
2023-04-07T03:58:55.847Z,29.85
2023-04-07T04:01:28.491Z,28.80
2023-04-07T04:03:58.077Z,31.13
2023-04-07T04:06:31.428Z,29.20
2023-04-07T04:09:06.920Z,28.85
2023-04-07T04:11:37.820Z,29.90
2023-04-07T04:14:06.610Z,29.95
2023-04-07T04:16:36.470Z,29.88
2023-04-07T04:19:09.578Z,29.35
2023-04-07T04:21:37.220Z,28.98
2023-04-07T04:24:04.642Z,29.40
2023-04-07T04:26:32.367Z,28.33
2023-04-07T04:29:06.391Z,29.38
2023-04-07T04:31:33.828Z,28.75
2023-04-07T04:34:01.417Z,30.52
2023-04-07T04:36:29.002Z,28.85
2023-04-07T04:39:01.448Z,30.65
2023-04-07T04:41:29.688Z,28.65
2023-04-07T04:43:57.500Z,28.30
2023-04-07T04:46:27.160Z,28.02
2023-04-07T04:48:54.680Z,29.67
2023-04-07T04:51:24.022Z,28.30
2023-04-07T04:53:56.512Z,28.42
2023-04-07T04:56:26.184Z,27.85
2023-04-07T04:58:54.379Z,28.40
2023-04-07T05:01:34.055Z,27.70
2023-04-07T05:04:06.734Z,29.40
2023-04-07T05:06:35.065Z,30.40
2023-04-07T05:09:06.932Z,28.85
2023-04-07T05:11:42.568Z,30.50
2023-04-07T05:14:09.953Z,28.13
2023-04-07T05:16:41.388Z,30.27
2023-04-07T05:19:10.744Z,30.38
2023-04-07T05:21:37.916Z,30.55
2023-04-07T05:24:04.936Z,28.40
2023-04-07T05:26:34.500Z,29.27
2023-04-07T05:29:04.323Z,29.38
2023-04-07T05:31:31.972Z,29.70
2023-04-07T05:34:00.614Z,28.70
2023-04-07T05:36:35.781Z,29.02
2023-04-07T05:39:03.125Z,29.83
2023-04-07T05:41:30.545Z,28.83
2023-04-07T05:43:57.458Z,28.38
2023-04-07T05:46:26.550Z,28.50
2023-04-07T05:48:58.033Z,30.52
2023-04-07T05:51:27.724Z,28.50
2023-04-07T05:53:56.328Z,28.60
2023-04-07T05:56:26.240Z,28.05
2023-04-07T05:58:53.833Z,28.92
2023-04-07T06:01:21.472Z,26.92
2023-04-07T06:03:48.856Z,28.48
2023-04-07T06:06:26.330Z,28.42
2023-04-07T06:08:53.274Z,27.63
2023-04-07T06:11:23.335Z,28.75
2023-04-07T06:13:53.607Z,28.08
2023-04-07T06:16:21.304Z,25.77
2023-04-07T06:18:48.367Z,29.23
2023-04-07T06:21:15.892Z,28.00
2023-04-07T06:23:43.225Z,26.48
2023-04-07T06:26:14.580Z,29.05
2023-04-07T06:28:42.178Z,26.05
2023-04-07T06:31:10.416Z,28.55
2023-04-07T06:33:38.773Z,31.38
2023-04-07T06:36:06.438Z,29.10
2023-04-07T06:38:36.389Z,28.77
2023-04-07T06:41:04.066Z,29.63
2023-04-07T06:43:31.591Z,29.40
2023-04-07T06:46:03.501Z,28.67
2023-04-07T06:48:30.979Z,30.10
2023-04-07T06:50:58.472Z,28.90
2023-04-07T06:53:25.971Z,27.92
2023-04-07T06:56:06.750Z,29.85
2023-04-07T06:58:34.496Z,28.23
2023-04-07T07:01:02.673Z,28.98
2023-04-07T07:03:31.750Z,29.35
2023-04-07T07:05:59.957Z,30.40
2023-04-07T07:08:27.876Z,28.95
2023-04-07T07:10:55.926Z,28.48
2023-04-07T07:13:25.571Z,28.80
2023-04-07T07:15:53.461Z,26.83
2023-04-07T07:18:20.856Z,25.95
2023-04-07T07:20:48.176Z,27.40
2023-04-07T07:23:15.153Z,27.13
2023-04-07T07:25:42.829Z,28.42
2023-04-07T07:28:10.031Z,27.33
2023-04-07T07:30:40.451Z,27.00
2023-04-07T07:33:07.676Z,26.67
2023-04-07T07:35:34.944Z,26.45
2023-04-07T07:38:02.011Z,26.92
2023-04-07T07:40:31.980Z,26.98
2023-04-07T07:42:59.892Z,25.23
2023-04-07T07:45:27.890Z,27.13
2023-04-07T07:47:55.111Z,25.98
2023-04-07T07:50:22.698Z,24.38
2023-04-07T07:52:49.706Z,24.92
2023-04-07T07:55:17.279Z,24.95
2023-04-07T07:57:44.818Z,25.70
2023-04-07T08:00:12.410Z,24.30
2023-04-07T08:02:42.574Z,26.40
2023-04-07T08:05:11.392Z,24.50
2023-04-07T08:07:38.586Z,22.83
2023-04-07T08:10:06.542Z,23.52
2023-04-07T08:12:33.666Z,23.23
2023-04-07T08:15:02.708Z,22.45
2023-04-07T08:17:30.044Z,22.08
2023-04-07T08:19:58.147Z,21.38
2023-04-07T08:22:25.305Z,21.50
2023-04-07T08:24:52.638Z,21.63
2023-04-07T08:27:20.919Z,19.52
2023-04-07T08:30:00.634Z,20.35
2023-04-07T08:32:45.355Z,20.67
2023-04-07T08:35:13.550Z,19.63
2023-04-07T08:37:42.235Z,19.05
2023-04-07T08:40:10.724Z,18.73
2023-04-07T08:42:42.437Z,20.10
2023-04-07T08:45:10.697Z,19.77
2023-04-07T08:47:39.869Z,19.17
2023-04-07T08:50:10.440Z,19.70
2023-04-07T08:52:57.867Z,20.27
2023-04-07T08:55:26.397Z,20.17
2023-04-07T08:57:53.855Z,18.15
2023-04-07T09:00:22.144Z,17.42
2023-04-07T09:02:52.312Z,17.85
2023-04-07T09:05:22.414Z,18.05
2023-04-07T09:07:49.584Z,17.88
2023-04-07T09:10:18.019Z,18.17
2023-04-07T09:12:45.735Z,18.13
2023-04-07T09:15:13.129Z,18.23
2023-04-07T09:17:40.556Z,18.67
2023-04-07T09:20:08.345Z,18.02
2023-04-07T09:22:40.652Z,17.90
2023-04-07T09:25:14.550Z,17.65
2023-04-07T09:27:42.136Z,17.95
2023-04-07T09:30:15.792Z,17.75
2023-04-07T09:32:43.358Z,17.27
2023-04-07T09:35:10.832Z,16.17
2023-04-07T09:37:38.059Z,17.00
2023-04-07T09:40:06.262Z,18.23
2023-04-07T09:42:34.647Z,17.95
2023-04-07T09:45:02.272Z,17.80
2023-04-07T09:47:31.376Z,18.40
2023-04-07T09:50:06.728Z,18.33
2023-04-07T09:52:53.688Z,15.68
2023-04-07T09:55:23.229Z,17.08
2023-04-07T09:57:51.319Z,16.63
2023-04-07T10:00:18.706Z,17.05
2023-04-07T10:02:46.796Z,15.68
2023-04-07T10:05:15.060Z,15.90
2023-04-07T10:07:43.403Z,15.68
2023-04-07T10:10:11.524Z,16.83
2023-04-07T10:12:41.413Z,16.13
2023-04-07T10:15:09.432Z,16.05
2023-04-07T10:17:37.360Z,17.15
2023-04-07T10:20:07.175Z,16.02
2023-04-07T10:22:36.678Z,15.27
2023-04-07T10:25:10.167Z,14.80
2023-04-07T10:27:59.439Z,15.13
2023-04-07T10:30:33.099Z,15.82
2023-04-07T10:33:02.760Z,15.00
2023-04-07T10:36:16.366Z,14.88
2023-04-07T10:39:09.145Z,15.00
2023-04-07T10:41:39.256Z,15.70
2023-04-07T10:44:08.283Z,15.07
2023-04-07T10:46:45.207Z,15.95
2023-04-07T10:49:18.560Z,15.82
2023-04-07T10:52:12.379Z,14.88
2023-04-07T10:54:40.144Z,14.23
2023-04-07T10:57:18.331Z,14.02
2023-04-07T11:00:15.494Z,14.55
2023-04-07T11:02:44.791Z,13.93
2023-04-07T11:05:22.611Z,15.27
2023-04-07T11:07:55.225Z,14.90
2023-04-07T11:10:23.419Z,14.35
2023-04-07T11:13:20.140Z,14.20
2023-04-07T11:15:51.362Z,13.38
2023-04-07T11:20:47.633Z,12.48
2023-04-07T11:23:19.070Z,12.68
2023-04-07T11:25:48.101Z,13.45
2023-04-07T11:28:16.126Z,12.70
2023-04-07T11:30:50.254Z,12.90
2023-04-07T11:33:20.571Z,13.55
2023-04-07T11:35:51.734Z,13.43
2023-04-07T11:40:47.481Z,13.13
2023-04-07T11:43:23.304Z,13.13
2023-04-07T11:46:12.074Z,13.32
2023-04-07T11:48:41.848Z,12.45
2023-04-07T11:51:24.094Z,13.30
2023-04-07T11:53:56.492Z,11.65
2023-04-07T11:56:24.087Z,12.95
2023-04-07T11:58:53.448Z,11.25
2023-04-07T12:01:21.654Z,11.18
2023-04-07T12:04:04.259Z,11.75
2023-04-07T12:06:42.090Z,11.90
2023-04-07T12:09:31.837Z,11.40
2023-04-07T12:12:03.506Z,12.82
2023-04-07T12:14:31.723Z,13.95
2023-04-07T12:16:59.782Z,14.77
2023-04-07T12:19:28.536Z,13.63
2023-04-07T12:21:57.187Z,14.18
2023-04-07T12:24:25.133Z,14.23
2023-04-07T12:26:53.102Z,14.10
2023-04-07T12:29:20.694Z,14.68
2023-04-07T12:31:50.894Z,15.75
2023-04-07T12:34:19.172Z,16.20
2023-04-07T12:36:46.221Z,14.45
2023-04-07T12:39:14.208Z,12.68
2023-04-07T12:41:41.375Z,12.38
2023-04-07T12:44:08.734Z,9.63
2023-04-07T12:46:36.361Z,7.85
2023-04-07T12:49:03.674Z,5.32
2023-04-07T12:51:33.520Z,3.80
2023-04-07T12:54:04.537Z,2.50
2023-04-07T12:56:32.593Z,1.98
2023-04-07T12:59:00.057Z,2.67
2023-04-07T13:01:27.890Z,2.17
2023-04-07T13:03:56.192Z,1.95
2023-04-07T13:06:23.520Z,2.83
2023-04-07T13:08:51.808Z,2.38
2023-04-07T13:11:19.207Z,2.38
2023-04-07T13:13:47.154Z,1.85
2023-04-07T13:16:15.408Z,2.22
2023-04-07T13:18:42.852Z,2.38
2023-04-07T13:21:43.080Z,2.33
2023-04-07T13:23:58.348Z,2.20
2023-04-07T13:26:25.278Z,2.40
2023-04-07T13:28:52.677Z,2.60
2023-04-07T13:31:22.061Z,2.47
2023-04-07T13:33:50.198Z,2.70
2023-04-07T13:36:17.651Z,2.80
2023-04-07T13:38:45.127Z,2.50
2023-04-07T13:41:12.550Z,2.70
2023-04-07T13:43:40.246Z,2.38
2023-04-07T13:46:17.177Z,2.70
2023-04-07T13:48:53.147Z,2.47
2023-04-07T13:51:20.625Z,2.55
2023-04-07T13:53:48.458Z,2.72
2023-04-07T13:56:15.635Z,2.95
2023-04-07T13:58:43.270Z,2.65
2023-04-07T14:01:10.171Z,2.60
2023-04-07T14:03:37.749Z,2.33
2023-04-07T14:06:06.017Z,2.95
2023-04-07T14:08:34.078Z,2.67
2023-04-07T14:11:01.291Z,2.65
2023-04-07T14:13:29.250Z,2.50
2023-04-07T14:15:56.148Z,2.90
2023-04-07T14:18:24.842Z,2.70
2023-04-07T14:20:52.437Z,2.97
2023-04-07T14:23:30.261Z,2.97
2023-04-07T14:26:02.616Z,2.63
2023-04-07T14:28:31.697Z,2.60
2023-04-07T14:30:59.129Z,2.60
2023-04-07T14:33:26.997Z,2.47
2023-04-07T14:35:53.997Z,2.58
2023-04-07T14:38:25.898Z,2.22
2023-04-07T14:43:21.132Z,2.10
2023-04-07T14:45:48.240Z,2.50
2023-04-07T14:48:17.193Z,2.50
2023-04-07T14:50:44.070Z,2.67
2023-04-07T14:53:11.452Z,2.65
2023-04-07T14:55:38.629Z,2.47
2023-04-07T14:58:06.397Z,2.85
2023-04-07T15:00:33.441Z,2.90
2023-04-07T15:03:01.413Z,2.90
2023-04-07T15:05:30.109Z,3.03
2023-04-07T15:07:58.823Z,2.92
2023-04-07T15:10:25.899Z,2.97
2023-04-07T15:12:54.112Z,3.42
2023-04-07T15:15:24.557Z,3.03
2023-04-07T15:17:52.443Z,3.03
2023-04-07T15:20:19.824Z,3.08
2023-04-07T15:22:47.606Z,3.13
2023-04-07T15:25:14.617Z,2.83
2023-04-07T15:27:42.433Z,3.20
2023-04-07T15:30:09.999Z,2.90
2023-04-07T15:32:37.569Z,2.88
2023-04-07T15:35:05.697Z,2.65
2023-04-07T15:37:32.970Z,3.10
2023-04-07T15:40:00.252Z,3.50
2023-04-07T15:42:27.528Z,3.30
2023-04-07T15:44:54.955Z,2.95
2023-04-07T15:47:22.144Z,2.58
2023-04-07T15:49:49.646Z,2.88
2023-04-07T15:52:16.817Z,2.90
2023-04-07T15:54:44.295Z,2.90
2023-04-07T15:57:12.069Z,3.30
2023-04-07T15:59:39.761Z,2.78
2023-04-07T16:02:07.236Z,2.70
2023-04-07T16:04:34.545Z,2.70
2023-04-07T16:07:02.002Z,2.33
2023-04-07T16:09:29.783Z,2.78
2023-04-07T16:11:57.171Z,2.40
2023-04-07T16:14:29.207Z,2.45
2023-04-07T16:16:59.368Z,3.10
2023-04-07T16:19:27.031Z,3.30
2023-04-07T16:21:55.065Z,2.80
2023-04-07T16:24:22.980Z,2.80
2023-04-07T16:26:51.497Z,2.72
2023-04-07T16:29:20.302Z,2.63
2023-04-07T16:31:49.213Z,2.75
2023-04-07T16:34:16.873Z,2.38
2023-04-07T16:36:44.040Z,2.55
2023-04-07T16:39:11.626Z,2.80
2023-04-07T16:41:39.261Z,3.20
2023-04-07T16:44:06.133Z,2.95
2023-04-07T16:46:34.723Z,2.50
2023-04-07T16:49:03.451Z,2.83
2023-04-07T16:51:32.122Z,2.72
2023-04-07T16:53:59.301Z,2.53
2023-04-07T16:56:27.095Z,2.28
2023-04-07T16:58:54.219Z,2.63
2023-04-07T17:01:21.769Z,2.72
2023-04-07T17:03:49.572Z,2.47
2023-04-07T17:06:17.878Z,2.10
2023-04-07T17:08:44.971Z,2.45
2023-04-07T17:11:13.747Z,2.45
2023-04-07T17:13:41.147Z,3.08
2023-04-07T17:16:13.972Z,2.92
2023-04-07T17:18:41.538Z,2.60
2023-04-07T17:21:09.227Z,3.10
2023-04-07T17:23:37.737Z,2.80
2023-04-07T17:26:05.516Z,2.95
2023-04-07T17:28:32.985Z,2.80
2023-04-07T17:31:00.431Z,2.80
2023-04-07T17:33:29.620Z,2.92
2023-04-07T17:35:57.967Z,3.40
2023-04-07T17:38:25.296Z,10.20
2023-04-07T17:41:00.293Z,3.28
2023-04-07T17:43:31.908Z,3.63
2023-04-07T17:48:26.620Z,3.70
2023-04-07T17:50:54.384Z,3.33
2023-04-07T17:53:21.559Z,3.40
2023-04-07T17:55:49.614Z,3.42
2023-04-07T17:58:17.286Z,3.40
2023-04-07T18:00:44.900Z,2.90
2023-04-07T18:03:14.564Z,3.30
2023-04-07T18:05:45.660Z,3.05
2023-04-07T18:08:13.588Z,2.90
2023-04-07T18:10:41.420Z,2.90
2023-04-07T18:13:08.657Z,3.13
2023-04-07T18:15:36.323Z,3.08
2023-04-07T18:18:03.655Z,3.35
2023-04-07T18:20:31.656Z,3.10
2023-04-07T18:22:58.807Z,2.92
2023-04-07T18:25:27.097Z,3.03
2023-04-07T18:27:54.333Z,2.85
2023-04-07T18:30:21.876Z,3.17
2023-04-07T18:32:49.426Z,3.05
2023-04-07T18:35:16.924Z,3.15
2023-04-07T18:37:44.484Z,3.10
2023-04-07T18:40:14.153Z,3.10
2023-04-07T18:42:41.305Z,3.25
2023-04-07T18:45:08.936Z,3.10
2023-04-07T18:47:36.448Z,3.17
2023-04-07T18:50:05.138Z,3.65
2023-04-07T18:52:32.318Z,4.13
2023-04-07T18:55:00.028Z,4.40
2023-04-07T18:57:27.290Z,4.28
2023-04-07T18:59:55.165Z,4.53
2023-04-07T19:02:22.859Z,4.32
2023-04-07T19:04:50.700Z,4.40
2023-04-07T19:07:17.496Z,4.50
2023-04-07T19:09:45.483Z,5.35
2023-04-07T19:12:12.668Z,4.97
2023-04-07T19:14:40.646Z,5.47
2023-04-07T19:17:07.623Z,5.35
2023-04-07T19:19:34.848Z,5.07
2023-04-07T19:22:01.828Z,6.00
2023-04-07T19:24:29.631Z,5.72
2023-04-07T19:26:56.957Z,5.82
2023-04-07T19:29:24.401Z,6.15
2023-04-07T19:31:53.052Z,5.70
2023-04-07T19:34:20.554Z,5.32
2023-04-07T19:36:47.486Z,5.45
2023-04-07T19:39:14.963Z,5.63
2023-04-07T19:41:41.908Z,6.18
2023-04-07T19:44:09.311Z,6.50
2023-04-07T19:46:36.561Z,6.07
2023-04-07T19:49:04.188Z,6.72
2023-04-07T19:51:31.103Z,5.03
2023-04-07T19:53:59.013Z,5.72
2023-04-07T19:56:26.053Z,5.80
2023-04-07T19:58:53.440Z,3.95
2023-04-07T20:01:20.557Z,4.95
2023-04-07T20:03:48.073Z,4.45
2023-04-07T20:06:15.298Z,4.40
2023-04-07T20:08:43.006Z,4.55
2023-04-07T20:11:12.777Z,4.45
2023-04-07T20:13:41.556Z,4.53
2023-04-07T20:16:09.158Z,4.25
2023-04-07T20:18:36.689Z,4.60
2023-04-07T20:21:07.622Z,3.92
2023-04-07T20:26:02.522Z,4.43
2023-04-07T20:28:30.863Z,3.90
2023-04-07T20:30:57.780Z,4.20
2023-04-07T20:33:25.354Z,4.10
2023-04-07T20:35:53.053Z,3.88
2023-04-07T20:38:20.691Z,4.20
2023-04-07T20:40:47.646Z,4.47
2023-04-07T20:43:18.416Z,3.63
2023-04-07T20:45:47.547Z,4.15
2023-04-07T20:48:17.161Z,4.35
2023-04-07T20:50:44.935Z,3.97
2023-04-07T20:53:13.561Z,4.13
2023-04-07T20:55:41.387Z,3.78
2023-04-07T20:58:09.252Z,4.03
2023-04-07T21:00:37.515Z,4.03
2023-04-07T21:03:04.887Z,5.05
2023-04-07T21:05:32.257Z,5.00
2023-04-07T21:07:59.692Z,5.32
2023-04-07T21:10:26.873Z,4.88
2023-04-07T21:12:54.129Z,5.50
2023-04-07T21:15:21.679Z,4.82
2023-04-07T21:17:49.138Z,5.47
2023-04-07T21:20:16.642Z,5.18
2023-04-07T21:22:44.667Z,5.50
2023-04-07T21:25:12.831Z,5.68
2023-04-07T21:27:40.047Z,5.85
2023-04-07T21:30:07.688Z,5.18
2023-04-07T21:32:34.884Z,5.07
2023-04-07T21:35:02.111Z,5.40
2023-04-07T21:37:29.409Z,5.38
2023-04-07T21:39:57.206Z,5.90
2023-04-07T21:42:24.525Z,5.72
2023-04-07T21:44:51.847Z,6.07
2023-04-07T21:47:19.101Z,5.47
2023-04-07T21:49:46.586Z,5.97
2023-04-07T21:52:14.036Z,5.55
2023-04-07T21:54:41.093Z,5.90
2023-04-07T21:57:08.583Z,6.68
2023-04-07T21:59:38.465Z,5.78
2023-04-07T22:02:06.246Z,5.55
2023-04-07T22:04:33.423Z,6.00
2023-04-07T22:07:00.939Z,5.80
2023-04-07T22:09:28.304Z,5.85
2023-04-07T22:11:56.019Z,5.28
2023-04-07T22:14:25.046Z,5.65
2023-04-07T22:16:52.861Z,6.25
2023-04-07T22:19:19.825Z,5.47
2023-04-07T22:21:49.404Z,5.85
2023-04-07T22:24:16.571Z,5.68
2023-04-07T22:26:43.920Z,5.43
2023-04-07T22:29:12.020Z,5.30
2023-04-07T22:31:39.290Z,5.95
2023-04-07T22:34:06.436Z,5.78
2023-04-07T22:36:34.478Z,6.13
2023-04-07T22:39:01.443Z,6.63
2023-04-07T22:41:28.922Z,6.53
2023-04-07T22:43:56.070Z,5.95
2023-04-07T22:46:23.771Z,7.38
2023-04-07T22:48:51.981Z,8.02
2023-04-07T22:51:19.764Z,7.30
2023-04-07T22:53:46.719Z,7.07
2023-04-07T22:56:14.423Z,7.68
2023-04-07T22:58:42.263Z,7.70
2023-04-07T23:01:11.338Z,8.30
2023-04-07T23:03:38.410Z,7.85
2023-04-07T23:06:06.344Z,7.88
2023-04-07T23:08:33.937Z,8.43
2023-04-07T23:11:01.466Z,8.32
2023-04-07T23:13:28.591Z,8.20
2023-04-07T23:15:56.064Z,8.77
2023-04-07T23:18:22.989Z,8.52
2023-04-07T23:20:52.090Z,9.15
2023-04-07T23:23:18.936Z,8.77
2023-04-07T23:25:46.163Z,9.15
2023-04-07T23:28:13.345Z,8.77
2023-04-07T23:30:40.754Z,9.00
2023-04-07T23:33:08.082Z,8.77
2023-04-07T23:35:35.476Z,8.98
2023-04-07T23:38:03.404Z,11.18
2023-04-07T23:40:30.876Z,11.98
2023-04-07T23:42:58.151Z,12.68
2023-04-07T23:45:25.415Z,10.95
2023-04-07T23:47:52.519Z,11.32
2023-04-07T23:50:20.284Z,10.48
2023-04-07T23:52:48.160Z,10.52
2023-04-07T23:55:15.864Z,10.02
2023-04-07T23:57:43.205Z,10.40
